Time;durP1;ratioP1;P1;durP2;ratioP2;P2;SDS_P1;SDS_P2;PMS_P1;PMS_P2;Temp;Humidity;BMP_temperature;BMP_pressure;BME280_temperature;BME280_humidity;BME280_pressure;Samples;Min_cycle;Max_cycle;Signal;HPM_P1;HPM_P2
2022/03/03 00:01:08;;;;;;;9.83;7.60;;;;;;;;;;5074719;28;20233;-17
2022/03/03 00:03:35;;;;;;;9.53;7.80;;;;;;;;;;5074633;28;20317;-17
2022/03/03 00:06:02;;;;;;;9.33;7.27;;;;;;;;;;5074388;28;20233;-17
2022/03/03 00:08:29;;;;;;;9.73;7.50;;;;;;;;;;5074765;28;20229;-17
2022/03/03 00:10:56;;;;;;;9.50;7.83;;;;;;;;;;5074618;28;20222;-17
2022/03/03 00:13:23;;;;;;;8.50;7.17;;;;;;;;;;5074634;28;20233;-17
2022/03/03 00:15:50;;;;;;;11.40;8.27;;;;;;;;;;5073824;28;20221;-17
2022/03/03 00:18:17;;;;;;;9.60;8.10;;;;;;;;;;5074489;28;20230;-17
2022/03/03 00:20:44;;;;;;;10.63;8.13;;;;;;;;;;5074621;28;20240;-17
2022/03/03 00:23:11;;;;;;;9.60;7.80;;;;;;;;;;5073751;28;20237;-17
2022/03/03 00:25:38;;;;;;;9.20;7.27;;;;;;;;;;5074301;28;20229;-17
2022/03/03 00:28:05;;;;;;;9.70;7.80;;;;;;;;;;5073769;28;20225;-17
2022/03/03 00:30:32;;;;;;;9.90;7.83;;;;;;;;;;5074200;28;20240;-17
2022/03/03 00:32:59;;;;;;;9.20;7.50;;;;;;;;;;5074217;28;20229;-17
2022/03/03 00:35:26;;;;;;;9.77;8.17;;;;;;;;;;5074254;28;20231;-17
2022/03/03 00:37:53;;;;;;;9.70;7.47;;;;;;;;;;5073777;28;20229;-17
2022/03/03 00:40:20;;;;;;;9.97;7.37;;;;;;;;;;5072860;28;20232;-17
2022/03/03 00:42:47;;;;;;;10.03;7.60;;;;;;;;;;5074163;28;20621;-17
2022/03/03 00:45:14;;;;;;;10.17;7.67;;;;;;;;;;5074057;28;20617;-17
2022/03/03 00:47:41;;;;;;;9.60;7.77;;;;;;;;;;5074272;28;20233;-17
2022/03/03 00:50:08;;;;;;;10.87;8.00;;;;;;;;;;5072865;28;20237;-17
2022/03/03 00:52:35;;;;;;;10.57;7.80;;;;;;;;;;5073936;28;20248;-17
2022/03/03 00:55:02;;;;;;;10.50;8.17;;;;;;;;;;5073263;28;20769;-17
2022/03/03 00:57:30;;;;;;;10.47;8.20;;;;;;;;;;5073895;28;20992;-17
2022/03/03 00:59:57;;;;;;;9.20;7.60;;;;;;;;;;5073331;28;20234;-17
2022/03/03 01:02:24;;;;;;;9.43;7.63;;;;;;;;;;5073894;28;20236;-17
2022/03/03 01:04:51;;;;;;;11.47;8.13;;;;;;;;;;5073679;28;21078;-17
2022/03/03 01:07:18;;;;;;;10.00;7.63;;;;;;;;;;5073714;28;20225;-17
2022/03/03 01:09:45;;;;;;;9.27;7.77;;;;;;;;;;5073831;28;20233;-17
2022/03/03 01:12:12;;;;;;;10.17;8.00;;;;;;;;;;5072947;28;20232;-17
2022/03/03 01:14:39;;;;;;;10.93;7.70;;;;;;;;;;5073931;28;20236;-17
2022/03/03 01:17:05;;;;;;;11.13;7.97;;;;;;;;;;5073605;28;20214;-17
2022/03/03 01:19:32;;;;;;;12.47;8.57;;;;;;;;;;5073653;28;20221;-17
2022/03/03 01:21:59;;;;;;;9.93;7.90;;;;;;;;;;5064983;28;20250;-17
2022/03/03 01:24:26;;;;;;;10.07;7.67;;;;;;;;;;5053344;28;21005;-17
2022/03/03 01:26:53;;;;;;;10.93;8.50;;;;;;;;;;5057040;28;20225;-17
2022/03/03 01:29:20;;;;;;;10.27;8.50;;;;;;;;;;5072416;28;20618;-17
2022/03/03 01:31:47;;;;;;;11.33;8.37;;;;;;;;;;5071788;28;20723;-17
2022/03/03 01:34:14;;;;;;;11.03;8.37;;;;;;;;;;5071258;28;20233;-17
2022/03/03 01:36:41;;;;;;;12.37;8.93;;;;;;;;;;5071942;28;20236;-17
2022/03/03 01:39:09;;;;;;;11.40;8.60;;;;;;;;;;5072851;28;20240;-17
2022/03/03 01:41:36;;;;;;;11.67;8.57;;;;;;;;;;5073167;28;20951;-17
2022/03/03 01:44:03;;;;;;;11.53;8.83;;;;;;;;;;5073087;28;21022;-17
2022/03/03 01:46:30;;;;;;;10.37;8.43;;;;;;;;;;5072878;28;20264;-17
2022/03/03 01:48:57;;;;;;;11.47;8.30;;;;;;;;;;5072709;28;20230;-17
2022/03/03 01:51:24;;;;;;;11.63;8.17;;;;;;;;;;5073272;28;20222;-17
2022/03/03 01:53:51;;;;;;;10.87;8.43;;;;;;;;;;5071792;28;20225;-17
2022/03/03 01:56:18;;;;;;;11.23;8.77;;;;;;;;;;5072812;28;20234;-17
2022/03/03 01:58:45;;;;;;;10.60;8.37;;;;;;;;;;5073134;28;20240;-17
2022/03/03 02:01:12;;;;;;;11.67;8.90;;;;;;;;;;5072060;28;20230;-17
2022/03/03 02:03:39;;;;;;;11.30;8.60;;;;;;;;;;5072848;28;20232;-17
2022/03/03 02:06:06;;;;;;;11.07;7.80;;;;;;;;;;5071694;28;20241;-17
2022/03/03 02:08:33;;;;;;;10.97;7.73;;;;;;;;;;5072977;28;20236;-17
2022/03/03 02:11:00;;;;;;;10.27;8.07;;;;;;;;;;5071851;28;20260;-17
2022/03/03 02:13:27;;;;;;;12.20;8.60;;;;;;;;;;5072772;28;20232;-17
2022/03/03 02:15:54;;;;;;;10.33;8.20;;;;;;;;;;5072679;28;20229;-17
2022/03/03 02:18:21;;;;;;;11.33;8.70;;;;;;;;;;5072544;28;20233;-17
2022/03/03 02:20:48;;;;;;;11.50;8.50;;;;;;;;;;5072591;28;20227;-17
2022/03/03 02:23:15;;;;;;;10.73;8.00;;;;;;;;;;5071149;28;20998;-17
2022/03/03 02:25:42;;;;;;;10.33;8.07;;;;;;;;;;5072536;28;20242;-17
2022/03/03 02:28:13;;;;;;;10.97;8.67;;;;;;;;;;5072193;28;20230;-17
2022/03/03 02:30:40;;;;;;;10.00;7.93;;;;;;;;;;5072441;28;20229;-17
2022/03/03 02:33:07;;;;;;;12.07;8.80;;;;;;;;;;5071751;28;20253;-17
2022/03/03 02:35:35;;;;;;;11.33;8.53;;;;;;;;;;5072624;28;20225;-17
2022/03/03 02:38:02;;;;;;;10.60;8.33;;;;;;;;;;5072366;28;20245;-17
2022/03/03 02:40:29;;;;;;;10.90;8.50;;;;;;;;;;5072269;28;20418;-17
2022/03/03 02:42:56;;;;;;;9.70;8.33;;;;;;;;;;5072131;28;20226;-17
2022/03/03 02:45:23;;;;;;;10.27;8.37;;;;;;;;;;5071743;28;20241;-17
2022/03/03 02:47:50;;;;;;;11.63;8.90;;;;;;;;;;5072493;28;20222;-17
2022/03/03 02:50:17;;;;;;;10.87;8.50;;;;;;;;;;5072351;28;20333;-17
2022/03/03 02:52:44;;;;;;;10.10;8.30;;;;;;;;;;5072171;28;21012;-17
2022/03/03 02:55:12;;;;;;;12.03;8.63;;;;;;;;;;5071266;28;20720;-17
2022/03/03 02:57:54;;;;;;;10.70;8.50;;;;;;;;;;5071916;28;20236;-17
2022/03/03 03:00:21;;;;;;;10.93;8.23;;;;;;;;;;5072014;28;21052;-17
2022/03/03 03:02:48;;;;;;;11.77;8.37;;;;;;;;;;5071915;28;20961;-17
2022/03/03 03:05:15;;;;;;;12.80;8.77;;;;;;;;;;5070729;28;20226;-17
2022/03/03 03:07:42;;;;;;;10.60;8.50;;;;;;;;;;5056869;28;20241;-17
2022/03/03 03:10:09;;;;;;;13.37;8.67;;;;;;;;;;5051595;28;20221;-17
2022/03/03 03:12:36;;;;;;;10.50;8.67;;;;;;;;;;5051455;28;20312;-17
2022/03/03 03:15:03;;;;;;;10.90;8.27;;;;;;;;;;5051709;28;20234;-17
2022/03/03 03:17:31;;;;;;;9.60;7.87;;;;;;;;;;5070944;28;20742;-17
2022/03/03 03:19:58;;;;;;;10.40;8.27;;;;;;;;;;5071828;28;20228;-17
2022/03/03 03:22:25;;;;;;;10.63;8.50;;;;;;;;;;5070889;28;20237;-16
2022/03/03 03:24:52;;;;;;;10.97;8.83;;;;;;;;;;5071646;28;20233;-17
2022/03/03 03:27:19;;;;;;;11.17;8.17;;;;;;;;;;5071296;28;20232;-17
2022/03/03 03:29:46;;;;;;;11.43;8.53;;;;;;;;;;5071470;28;20854;-17
2022/03/03 03:32:13;;;;;;;11.80;8.60;;;;;;;;;;5071541;28;20699;-17
2022/03/03 03:34:40;;;;;;;12.07;8.47;;;;;;;;;;5071588;28;20229;-17
2022/03/03 03:37:07;;;;;;;11.77;8.70;;;;;;;;;;5071397;28;20225;-17
2022/03/03 03:39:34;;;;;;;10.60;8.20;;;;;;;;;;5070508;28;20320;-17
2022/03/03 03:42:01;;;;;;;11.40;8.83;;;;;;;;;;5071526;28;20225;-17
2022/03/03 03:44:28;;;;;;;10.23;8.30;;;;;;;;;;5071625;28;20225;-17
2022/03/03 03:46:55;;;;;;;12.33;9.23;;;;;;;;;;5071485;28;20236;-17
2022/03/03 03:49:23;;;;;;;12.17;9.00;;;;;;;;;;5069238;28;20829;-17
2022/03/03 03:51:50;;;;;;;12.07;8.97;;;;;;;;;;5051293;28;20226;-17
2022/03/03 03:54:17;;;;;;;10.57;8.43;;;;;;;;;;5051670;28;20226;-17
2022/03/03 03:56:44;;;;;;;10.37;7.87;;;;;;;;;;5051317;28;20226;-17
2022/03/03 03:59:11;;;;;;;11.23;8.63;;;;;;;;;;5050979;28;20222;-17
2022/03/03 04:01:38;;;;;;;12.30;8.80;;;;;;;;;;5063583;28;20229;-17
2022/03/03 04:04:06;;;;;;;12.50;9.30;;;;;;;;;;5071216;28;20996;-17
2022/03/03 04:06:33;;;;;;;12.10;8.73;;;;;;;;;;5071280;28;20328;-17
2022/03/03 04:09:00;;;;;;;12.40;8.90;;;;;;;;;;5071196;28;20719;-17
2022/03/03 04:11:27;;;;;;;12.60;8.90;;;;;;;;;;5070332;28;20240;-17
2022/03/03 04:13:56;;;;;;;11.57;8.60;;;;;;;;;;5071140;28;20225;-17
2022/03/03 04:16:23;;;;;;;11.17;8.47;;;;;;;;;;5070974;28;20244;-17
2022/03/03 04:18:50;;;;;;;12.17;9.07;;;;;;;;;;5071002;28;20232;-17
2022/03/03 04:21:17;;;;;;;10.30;8.27;;;;;;;;;;5070947;28;20723;-17
2022/03/03 04:23:44;;;;;;;11.80;8.70;;;;;;;;;;5069926;28;20241;-17
2022/03/03 04:26:11;;;;;;;11.97;8.87;;;;;;;;;;5070831;28;20245;-17
2022/03/03 04:28:38;;;;;;;13.17;8.97;;;;;;;;;;5070963;28;20727;-17
2022/03/03 04:31:05;;;;;;;11.43;8.90;;;;;;;;;;5073712;28;20226;-17
2022/03/03 04:33:32;;;;;;;11.53;8.23;;;;;;;;;;5076577;28;20233;-17
2022/03/03 04:35:59;;;;;;;11.37;8.97;;;;;;;;;;5094881;28;20235;-17
2022/03/03 04:38:26;;;;;;;11.40;8.27;;;;;;;;;;5094794;28;20221;-17
2022/03/03 04:40:53;;;;;;;11.80;8.50;;;;;;;;;;5094402;28;20225;-17
2022/03/03 04:43:20;;;;;;;12.57;9.03;;;;;;;;;;5094435;28;20225;-17
2022/03/03 04:45:47;;;;;;;11.70;8.37;;;;;;;;;;5079459;28;20257;-17
2022/03/03 04:48:14;;;;;;;12.07;9.00;;;;;;;;;;5074100;28;20676;-17
2022/03/03 04:50:41;;;;;;;10.47;8.67;;;;;;;;;;5074065;28;20719;-17
2022/03/03 04:53:08;;;;;;;12.40;8.87;;;;;;;;;;5074081;28;20232;-17
2022/03/03 04:55:35;;;;;;;11.93;8.80;;;;;;;;;;5073339;28;20784;-17
2022/03/03 04:58:06;;;;;;;11.90;9.00;;;;;;;;;;5073976;28;20226;-17
2022/03/03 05:00:33;;;;;;;12.63;8.70;;;;;;;;;;5073585;28;20222;-17
2022/03/03 05:03:00;;;;;;;11.77;9.37;;;;;;;;;;5073774;28;20232;-17
2022/03/03 05:05:27;;;;;;;11.73;8.70;;;;;;;;;;5073845;28;20794;-17
2022/03/03 05:07:54;;;;;;;11.60;9.10;;;;;;;;;;5073304;28;20321;-17
2022/03/03 05:10:21;;;;;;;12.03;8.93;;;;;;;;;;5073735;28;20979;-17
2022/03/03 05:12:48;;;;;;;12.20;9.10;;;;;;;;;;5073857;28;20943;-17
2022/03/03 05:15:15;;;;;;;11.37;9.03;;;;;;;;;;5073690;28;20230;-17
2022/03/03 05:17:42;;;;;;;13.60;9.03;;;;;;;;;;5073017;28;20226;-17
2022/03/03 05:20:09;;;;;;;11.17;8.43;;;;;;;;;;5073566;28;20233;-17
2022/03/03 05:22:36;;;;;;;14.50;9.03;;;;;;;;;;5073104;28;20237;-17
2022/03/03 05:25:03;;;;;;;12.70;8.50;;;;;;;;;;5073794;28;20236;-17
2022/03/03 05:27:30;;;;;;;13.70;9.10;;;;;;;;;;5073183;28;20226;-17
2022/03/03 05:29:57;;;;;;;11.43;8.70;;;;;;;;;;5072795;28;20233;-17
2022/03/03 05:32:24;;;;;;;11.13;8.93;;;;;;;;;;5073286;28;20233;-17
2022/03/03 05:34:51;;;;;;;11.57;8.40;;;;;;;;;;5073526;28;20615;-17
2022/03/03 05:37:18;;;;;;;12.03;8.57;;;;;;;;;;5073287;28;20221;-17
2022/03/03 05:39:45;;;;;;;10.97;8.73;;;;;;;;;;5071303;28;20225;-17
2022/03/03 05:42:12;;;;;;;12.93;8.90;;;;;;;;;;5073372;28;20209;-17
2022/03/03 05:44:39;;;;;;;11.13;8.83;;;;;;;;;;5073190;28;20241;-17
2022/03/03 05:47:06;;;;;;;12.30;8.80;;;;;;;;;;5073081;28;20653;-17
2022/03/03 05:49:33;;;;;;;12.20;9.27;;;;;;;;;;5073001;28;20227;-17
2022/03/03 05:52:00;;;;;;;11.67;8.40;;;;;;;;;;5072507;28;20240;-17
2022/03/03 05:54:27;;;;;;;13.07;9.10;;;;;;;;;;5072956;28;20699;-17
2022/03/03 05:56:54;;;;;;;12.40;9.73;;;;;;;;;;5072913;28;20236;-17
2022/03/03 05:59:21;;;;;;;12.67;9.27;;;;;;;;;;5072905;28;20232;-17
2022/03/03 06:01:48;;;;;;;13.10;8.60;;;;;;;;;;5077578;28;20236;-17
2022/03/03 06:04:15;;;;;;;13.97;9.00;;;;;;;;;;5093435;28;20233;-17
2022/03/03 06:06:42;;;;;;;10.33;8.40;;;;;;;;;;5093271;28;20228;-17
2022/03/03 06:09:09;;;;;;;10.73;8.10;;;;;;;;;;5093030;28;20212;-17
2022/03/03 06:11:36;;;;;;;12.50;8.87;;;;;;;;;;5092887;28;20228;-17
2022/03/03 06:14:03;;;;;;;12.23;8.70;;;;;;;;;;5076231;28;21201;-17
2022/03/03 06:16:30;;;;;;;11.80;9.00;;;;;;;;;;5072469;28;20225;-17
2022/03/03 06:18:58;;;;;;;10.93;8.47;;;;;;;;;;5072717;28;20283;-17
2022/03/03 06:21:25;;;;;;;10.57;8.73;;;;;;;;;;5072242;28;20312;-17
2022/03/03 06:23:52;;;;;;;10.90;8.70;;;;;;;;;;5078057;28;21105;-17
2022/03/03 06:26:19;;;;;;;13.77;8.90;;;;;;;;;;5092728;28;20232;-17
2022/03/03 06:28:46;;;;;;;11.90;8.77;;;;;;;;;;5092983;28;20220;-17
2022/03/03 06:31:13;;;;;;;11.37;8.97;;;;;;;;;;5083268;28;20237;-17
2022/03/03 06:33:40;;;;;;;11.33;8.27;;;;;;;;;;5072642;28;20324;-17
2022/03/03 06:36:07;;;;;;;11.80;7.80;;;;;;;;;;5087542;28;20229;-17
2022/03/03 06:38:34;;;;;;;10.30;8.27;;;;;;;;;;5091271;28;20232;-17
2022/03/03 06:41:05;;;;;;;12.13;8.40;;;;;;;;;;5092506;28;20252;-17
2022/03/03 06:43:33;;;;;;;10.43;8.17;;;;;;;;;;5092595;28;20225;-17
2022/03/03 06:46:00;;;;;;;11.97;9.00;;;;;;;;;;5083733;28;20244;-17
2022/03/03 06:48:27;;;;;;;11.20;8.13;;;;;;;;;;5072132;28;20758;-17
2022/03/03 06:50:54;;;;;;;10.40;8.50;;;;;;;;;;5071912;28;20225;-17
2022/03/03 06:53:21;;;;;;;11.00;8.37;;;;;;;;;;5071500;28;20246;-17
2022/03/03 06:55:48;;;;;;;11.50;8.90;;;;;;;;;;5072204;28;20366;-17
2022/03/03 06:58:15;;;;;;;11.53;8.60;;;;;;;;;;5054427;28;20230;-17
2022/03/03 07:00:42;;;;;;;10.93;8.73;;;;;;;;;;5057239;28;20225;-17
2022/03/03 07:03:10;;;;;;;10.77;8.30;;;;;;;;;;5071748;28;20233;-16
2022/03/03 07:05:37;;;;;;;10.80;8.33;;;;;;;;;;5072000;28;20248;-17
2022/03/03 07:08:04;;;;;;;11.13;8.70;;;;;;;;;;5078970;28;20236;-17
2022/03/03 07:10:32;;;;;;;11.73;8.33;;;;;;;;;;5092181;28;20729;-17
2022/03/03 07:12:59;;;;;;;10.70;8.53;;;;;;;;;;5090685;28;20236;-17
2022/03/03 07:15:26;;;;;;;11.60;8.87;;;;;;;;;;5088620;28;21081;-17
2022/03/03 07:17:53;;;;;;;10.47;8.13;;;;;;;;;;5071684;28;20229;-17
2022/03/03 07:20:20;;;;;;;11.60;8.87;;;;;;;;;;5070822;28;21059;-17
2022/03/03 07:22:47;;;;;;;11.97;9.03;;;;;;;;;;5071246;28;21027;-17
2022/03/03 07:25:14;;;;;;;10.93;8.30;;;;;;;;;;5071638;28;20966;-17
2022/03/03 07:27:41;;;;;;;11.50;8.27;;;;;;;;;;5071322;28;20249;-17
2022/03/03 07:30:08;;;;;;;11.60;9.03;;;;;;;;;;5070506;28;20320;-17
2022/03/03 07:32:36;;;;;;;12.77;8.77;;;;;;;;;;5071371;28;20233;-17
2022/03/03 07:35:03;;;;;;;9.47;7.73;;;;;;;;;;5071537;28;20223;-17
2022/03/03 07:37:32;;;;;;;11.43;8.73;;;;;;;;;;5071288;28;20226;-17
2022/03/03 07:39:59;;;;;;;10.83;8.90;;;;;;;;;;5071365;28;20233;-17
2022/03/03 07:42:26;;;;;;;12.53;8.53;;;;;;;;;;5070897;28;21102;-17
2022/03/03 07:44:53;;;;;;;11.30;8.60;;;;;;;;;;5071388;28;21465;-17
2022/03/03 07:47:20;;;;;;;11.50;8.43;;;;;;;;;;5071098;28;20946;-17
2022/03/03 07:49:47;;;;;;;11.50;8.47;;;;;;;;;;5071330;28;20714;-17
2022/03/03 07:52:14;;;;;;;10.37;8.23;;;;;;;;;;5061921;28;21413;-17
2022/03/03 07:54:41;;;;;;;10.70;7.57;;;;;;;;;;5051351;28;20241;-17
2022/03/03 07:57:08;;;;;;;11.50;8.97;;;;;;;;;;5051230;28;20226;-17
2022/03/03 07:59:39;;;;;;;12.13;8.13;;;;;;;;;;5050831;28;20230;-17
2022/03/03 08:02:06;;;;;;;11.50;8.97;;;;;;;;;;5067779;28;20233;-17
2022/03/03 08:04:33;;;;;;;12.03;8.27;;;;;;;;;;5051909;28;20230;-17
2022/03/03 08:07:02;;;;;;;11.90;8.33;;;;;;;;;;5054408;28;20240;-17
2022/03/03 08:09:29;;;;;;;11.87;8.60;;;;;;;;;;5054361;28;20226;-17
2022/03/03 08:11:56;;;;;;;11.33;8.57;;;;;;;;;;5054116;28;20237;-17
2022/03/03 08:14:23;;;;;;;10.17;8.30;;;;;;;;;;5064993;28;20260;-17
2022/03/03 08:16:50;;;;;;;11.60;8.00;;;;;;;;;;5074516;28;20237;-17
2022/03/03 08:19:17;;;;;;;12.77;8.37;;;;;;;;;;5074626;28;20253;-17
2022/03/03 08:21:44;;;;;;;12.03;8.20;;;;;;;;;;5073779;28;21079;-17
2022/03/03 08:24:11;;;;;;;11.37;8.83;;;;;;;;;;5073859;28;20868;-17
2022/03/03 08:26:39;;;;;;;11.33;8.73;;;;;;;;;;5074199;28;20253;-17
2022/03/03 08:29:06;;;;;;;12.87;8.20;;;;;;;;;;5074431;28;20221;-17
2022/03/03 08:31:33;;;;;;;11.90;8.00;;;;;;;;;;5074333;28;20268;-17
2022/03/03 08:34:02;;;;;;;10.73;8.20;;;;;;;;;;5074295;28;20272;-17
2022/03/03 08:36:29;;;;;;;10.03;7.97;;;;;;;;;;5073730;28;20236;-17
2022/03/03 08:38:56;;;;;;;11.23;8.63;;;;;;;;;;5074036;28;20240;-17
2022/03/03 08:41:23;;;;;;;12.10;8.83;;;;;;;;;;5074444;28;20235;-17
2022/03/03 08:43:50;;;;;;;10.33;8.03;;;;;;;;;;5074228;28;20222;-17
2022/03/03 08:46:17;;;;;;;10.60;8.27;;;;;;;;;;5073240;28;20276;-17
2022/03/03 08:48:44;;;;;;;11.17;8.67;;;;;;;;;;5074005;28;20233;-16
2022/03/03 08:51:13;;;;;;;9.27;7.63;;;;;;;;;;5074261;28;20230;-17
2022/03/03 08:53:40;;;;;;;10.57;8.60;;;;;;;;;;5074017;28;20692;-17
2022/03/03 08:56:08;;;;;;;9.17;7.20;;;;;;;;;;5073991;28;20711;-17
2022/03/03 08:58:35;;;;;;;11.10;8.50;;;;;;;;;;5073145;28;20230;-17
2022/03/03 09:01:02;;;;;;;12.00;8.20;;;;;;;;;;5073810;28;20248;-17
2022/03/03 09:03:29;;;;;;;10.37;8.00;;;;;;;;;;5073661;28;20217;-17
2022/03/03 09:06:01;;;;;;;9.73;7.50;;;;;;;;;;5073999;28;20422;-17
2022/03/03 09:08:28;;;;;;;10.07;7.47;;;;;;;;;;5073049;28;20229;-17
2022/03/03 09:10:55;;;;;;;10.07;7.67;;;;;;;;;;5074016;28;20981;-17
2022/03/03 09:13:22;;;;;;;12.23;8.23;;;;;;;;;;5073716;28;20972;-17
2022/03/03 09:15:49;;;;;;;9.90;7.80;;;;;;;;;;5073422;28;20898;-17
2022/03/03 09:18:16;;;;;;;10.90;8.40;;;;;;;;;;5073970;28;20225;-17
2022/03/03 09:20:43;;;;;;;9.77;7.63;;;;;;;;;;5073071;28;20233;-17
2022/03/03 09:23:10;;;;;;;11.37;8.63;;;;;;;;;;5072985;28;20251;-17
2022/03/03 09:25:37;;;;;;;11.10;8.57;;;;;;;;;;5073566;28;20688;-17
2022/03/03 09:28:04;;;;;;;10.87;8.47;;;;;;;;;;5073517;28;20703;-17
2022/03/03 09:30:31;;;;;;;10.80;8.33;;;;;;;;;;5073037;28;20244;-17
2022/03/03 09:32:58;;;;;;;9.67;8.13;;;;;;;;;;5073397;28;20222;-16
2022/03/03 09:35:28;;;;;;;10.77;8.03;;;;;;;;;;5073261;28;20225;-17
2022/03/03 09:37:55;;;;;;;11.33;8.23;;;;;;;;;;5073231;28;20236;-17
2022/03/03 09:40:22;;;;;;;10.83;8.17;;;;;;;;;;5073090;28;20229;-17
2022/03/03 09:42:49;;;;;;;11.50;8.37;;;;;;;;;;5072717;28;20230;-17
2022/03/03 09:45:16;;;;;;;11.47;8.17;;;;;;;;;;5072934;28;20232;-17
2022/03/03 09:47:43;;;;;;;9.97;7.70;;;;;;;;;;5073010;28;20244;-17
2022/03/03 09:50:10;;;;;;;10.17;8.00;;;;;;;;;;5072929;28;20230;-17
2022/03/03 09:52:37;;;;;;;10.30;8.03;;;;;;;;;;5072413;28;20964;-17
2022/03/03 09:55:05;;;;;;;9.97;8.13;;;;;;;;;;5072885;28;20232;-16
2022/03/03 09:57:33;;;;;;;10.53;7.90;;;;;;;;;;5073167;28;20283;-17
2022/03/03 10:00:03;;;;;;;10.70;8.20;;;;;;;;;;5073149;28;20716;-17
2022/03/03 10:02:30;;;;;;;10.63;8.23;;;;;;;;;;5072951;28;20232;-17
2022/03/03 10:04:58;;;;;;;9.67;6.90;;;;;;;;;;5087526;28;20256;-17
2022/03/03 10:07:25;;;;;;;11.77;8.00;;;;;;;;;;5093184;28;20240;-17
2022/03/03 10:10:02;;;;;;;10.37;7.57;;;;;;;;;;5093120;28;20319;-17
2022/03/03 10:12:32;;;;;;;10.90;8.00;;;;;;;;;;5093253;28;20221;-17
2022/03/03 10:14:59;;;;;;;11.17;8.20;;;;;;;;;;5084637;28;20225;-17
2022/03/03 10:17:25;;;;;;;10.30;8.03;;;;;;;;;;5072668;28;20229;-17
2022/03/03 10:19:53;;;;;;;12.03;7.83;;;;;;;;;;5072747;28;20233;-17
2022/03/03 10:22:20;;;;;;;9.10;7.33;;;;;;;;;;5071978;28;20249;-17
2022/03/03 10:24:50;;;;;;;8.50;7.07;;;;;;;;;;5072445;28;20230;-17
2022/03/03 10:27:17;;;;;;;10.03;7.87;;;;;;;;;;5070945;28;20247;-17
2022/03/03 10:29:44;;;;;;;10.17;8.10;;;;;;;;;;5072610;28;20229;-17
2022/03/03 10:32:11;;;;;;;9.20;7.40;;;;;;;;;;5072439;28;20229;-17
2022/03/03 10:34:43;;;;;;;9.30;8.07;;;;;;;;;;5072436;28;20235;-17
2022/03/03 10:37:10;;;;;;;10.40;8.00;;;;;;;;;;5071751;28;20233;-17
2022/03/03 10:39:37;;;;;;;9.87;7.43;;;;;;;;;;5072412;28;20643;-17
2022/03/03 10:42:04;;;;;;;10.17;7.83;;;;;;;;;;5072130;28;20226;-17
2022/03/03 10:44:32;;;;;;;10.47;7.73;;;;;;;;;;5072013;28;20237;-17
2022/03/03 10:47:00;;;;;;;11.30;8.23;;;;;;;;;;5072140;28;20665;-17
2022/03/03 10:49:27;;;;;;;9.13;7.67;;;;;;;;;;5071414;28;20695;-17
2022/03/03 10:51:53;;;;;;;10.90;7.90;;;;;;;;;;5072080;28;20696;-17
2022/03/03 10:54:20;;;;;;;9.43;7.70;;;;;;;;;;5071698;28;20701;-17
2022/03/03 10:57:06;;;;;;;10.97;8.37;;;;;;;;;;5072216;28;20303;-17
2022/03/03 10:59:33;;;;;;;9.87;7.63;;;;;;;;;;5071587;28;20236;-17
2022/03/03 11:02:00;;;;;;;8.30;7.20;;;;;;;;;;5071998;28;20225;-17
2022/03/03 11:04:27;;;;;;;10.70;7.97;;;;;;;;;;5072005;28;20225;-17
2022/03/03 11:06:54;;;;;;;10.50;7.93;;;;;;;;;;5071739;28;20244;-17
2022/03/03 11:09:21;;;;;;;11.13;8.20;;;;;;;;;;5071310;28;20716;-17
2022/03/03 11:11:48;;;;;;;10.73;8.17;;;;;;;;;;5071886;28;20222;-17
2022/03/03 11:14:15;;;;;;;10.87;8.27;;;;;;;;;;5072057;28;20261;-17
2022/03/03 11:16:42;;;;;;;8.73;7.80;;;;;;;;;;5071657;28;20637;-17
2022/03/03 11:19:09;;;;;;;10.80;8.23;;;;;;;;;;5072105;28;20221;-17
2022/03/03 11:21:36;;;;;;;11.77;8.80;;;;;;;;;;5070469;28;20248;-17
2022/03/03 11:24:03;;;;;;;11.53;9.10;;;;;;;;;;5071578;28;20248;-17
2022/03/03 11:26:31;;;;;;;11.00;8.30;;;;;;;;;;5071507;28;20236;-17
2022/03/03 11:28:58;;;;;;;12.00;8.20;;;;;;;;;;5071615;28;20240;-17
2022/03/03 11:31:27;;;;;;;11.93;9.13;;;;;;;;;;5071067;28;20229;-17
2022/03/03 11:33:54;;;;;;;10.47;8.40;;;;;;;;;;5071518;28;20286;-17
2022/03/03 11:36:21;;;;;;;12.23;8.53;;;;;;;;;;5071700;28;20232;-17
2022/03/03 11:38:48;;;;;;;10.53;8.93;;;;;;;;;;5072636;28;20235;-17
2022/03/03 11:41:15;;;;;;;10.53;8.83;;;;;;;;;;5075189;28;20983;-16
2022/03/03 11:43:42;;;;;;;10.97;8.00;;;;;;;;;;5074321;28;20225;-16
2022/03/03 11:46:09;;;;;;;10.00;8.13;;;;;;;;;;5075046;28;20229;-16
2022/03/03 11:48:36;;;;;;;10.17;7.90;;;;;;;;;;5074786;28;20251;-17
2022/03/03 11:51:03;;;;;;;12.03;8.37;;;;;;;;;;5074906;28;20232;-17
2022/03/03 11:53:29;;;;;;;11.93;8.83;;;;;;;;;;5074407;28;20225;-16
2022/03/03 11:55:56;;;;;;;9.93;8.23;;;;;;;;;;5074829;28;20225;-17
2022/03/03 11:58:24;;;;;;;10.33;8.20;;;;;;;;;;5075019;28;20524;-16
2022/03/03 12:00:51;;;;;;;12.90;8.67;;;;;;;;;;5074801;28;20230;-16
2022/03/03 12:03:22;;;;;;;10.00;8.20;;;;;;;;;;5074643;28;20663;-17
2022/03/03 12:05:50;;;;;;;11.33;8.40;;;;;;;;;;5074004;28;20225;-16
2022/03/03 12:08:17;;;;;;;10.07;8.23;;;;;;;;;;5074749;28;20837;-16
2022/03/03 12:10:44;;;;;;;9.87;7.60;;;;;;;;;;5074763;28;20670;-16
2022/03/03 12:13:11;;;;;;;10.03;7.90;;;;;;;;;;5074390;28;20225;-16
2022/03/03 12:15:38;;;;;;;10.23;8.00;;;;;;;;;;5073771;28;20308;-16
2022/03/03 12:18:08;;;;;;;10.60;8.00;;;;;;;;;;5074543;28;20225;-16
2022/03/03 12:20:37;;;;;;;10.37;7.67;;;;;;;;;;5074693;28;20235;-16
2022/03/03 12:23:24;;;;;;;9.43;7.50;;;;;;;;;;5074128;28;20288;-17
2022/03/03 12:25:51;;;;;;;12.77;8.40;;;;;;;;;;5074686;28;20221;-16
2022/03/03 12:28:18;;;;;;;10.63;7.60;;;;;;;;;;5073596;28;20241;-16
2022/03/03 12:30:45;;;;;;;8.50;7.27;;;;;;;;;;5074222;28;20226;-17
2022/03/03 12:33:12;;;;;;;10.07;7.47;;;;;;;;;;5074400;28;20221;-16
2022/03/03 12:35:39;;;;;;;9.47;7.50;;;;;;;;;;5074489;28;20222;-16
2022/03/03 12:38:06;;;;;;;10.73;7.93;;;;;;;;;;5073646;28;20234;-16
2022/03/03 12:40:33;;;;;;;9.37;8.00;;;;;;;;;;5074350;28;20252;-17
2022/03/03 12:43:00;;;;;;;14.00;8.90;;;;;;;;;;5074178;28;20226;-17
2022/03/03 12:45:27;;;;;;;11.17;8.47;;;;;;;;;;5074067;28;20240;-17
2022/03/03 12:47:54;;;;;;;9.90;8.13;;;;;;;;;;5073960;28;20237;-16
2022/03/03 12:50:21;;;;;;;10.07;8.10;;;;;;;;;;5072814;28;20230;-17
2022/03/03 12:52:48;;;;;;;11.03;8.33;;;;;;;;;;5074122;28;20301;-16
2022/03/03 12:55:15;;;;;;;9.47;7.87;;;;;;;;;;5073978;28;20231;-16
2022/03/03 12:57:42;;;;;;;10.77;8.17;;;;;;;;;;5074093;28;20238;-17
2022/03/03 13:00:10;;;;;;;10.03;8.00;;;;;;;;;;5073258;28;20225;-16
2022/03/03 13:02:37;;;;;;;11.10;8.30;;;;;;;;;;5073705;28;20786;-17
2022/03/03 13:05:04;;;;;;;12.37;8.70;;;;;;;;;;5073703;28;20387;-17
2022/03/03 13:07:31;;;;;;;9.50;7.87;;;;;;;;;;5073522;28;20252;-17
2022/03/03 13:09:58;;;;;;;8.57;7.67;;;;;;;;;;5073610;28;20225;-17
2022/03/03 13:12:31;;;;;;;10.70;8.00;;;;;;;;;;5073228;28;20320;-16
2022/03/03 13:14:58;;;;;;;10.43;8.10;;;;;;;;;;5073670;28;20226;-17
2022/03/03 13:17:25;;;;;;;10.63;8.93;;;;;;;;;;5073521;28;20244;-17
2022/03/03 13:19:52;;;;;;;11.70;8.07;;;;;;;;;;5073874;28;20232;-16
2022/03/03 13:22:19;;;;;;;12.13;7.97;;;;;;;;;;5081937;28;20237;-17
2022/03/03 13:24:46;;;;;;;9.27;8.00;;;;;;;;;;5094051;28;20228;-17
2022/03/03 13:27:14;;;;;;;11.60;8.13;;;;;;;;;;5093833;28;20252;-16
2022/03/03 13:29:42;;;;;;;10.40;7.90;;;;;;;;;;5093892;28;20221;-16
2022/03/03 13:32:09;;;;;;;9.47;7.53;;;;;;;;;;5075795;28;20234;-16
2022/03/03 13:34:38;;;;;;;10.73;7.73;;;;;;;;;;5072059;28;20237;-16
2022/03/03 13:37:05;;;;;;;8.93;7.57;;;;;;;;;;5073253;28;20222;-16
2022/03/03 13:39:35;;;;;;;9.97;7.10;;;;;;;;;;5073493;28;20726;-16
2022/03/03 13:42:03;;;;;;;7.80;7.00;;;;;;;;;;5073377;28;20275;-16
2022/03/03 13:44:38;;;;;;;8.67;6.90;;;;;;;;;;5060281;28;20236;-16
2022/03/03 13:47:05;;;;;;;8.93;7.07;;;;;;;;;;5070067;28;20244;-16
2022/03/03 13:49:32;;;;;;;8.50;6.55;;;;;;;;;;5073018;28;20224;-17
2022/03/03 13:51:59;;;;;;;8.20;6.20;;;;;;;;;;5073072;28;20225;-16
2022/03/03 13:54:26;;;;;;;12.40;6.93;;;;;;;;;;5072213;28;20225;-17
2022/03/03 13:56:53;;;;;;;8.30;6.70;;;;;;;;;;5073014;28;20225;-16
2022/03/03 13:59:20;;;;;;;9.13;7.03;;;;;;;;;;5073067;28;20226;-17
2022/03/03 14:01:47;;;;;;;8.00;6.53;;;;;;;;;;5072064;28;20233;-16
2022/03/03 14:04:14;;;;;;;7.47;6.37;;;;;;;;;;5072761;28;20236;-16
2022/03/03 14:06:42;;;;;;;7.63;6.47;;;;;;;;;;5072512;28;20234;-16
2022/03/03 14:09:09;;;;;;;10.57;6.47;;;;;;;;;;5072661;28;20233;-16
2022/03/03 14:11:36;;;;;;;8.10;6.37;;;;;;;;;;5072915;28;20862;-16
2022/03/03 14:14:03;;;;;;;8.97;6.60;;;;;;;;;;5072935;28;20231;-16
2022/03/03 14:16:31;;;;;;;9.13;6.23;;;;;;;;;;5071989;28;21795;-16
2022/03/03 14:18:58;;;;;;;8.75;6.25;;;;;;;;;;5072617;28;20243;-17
2022/03/03 14:21:25;;;;;;;8.50;6.15;;;;;;;;;;5072414;28;20229;-17
2022/03/03 14:23:52;;;;;;;9.02;6.60;;;;;;;;;;5072031;28;20778;-17
2022/03/03 14:26:39;;;;;;;8.35;6.43;;;;;;;;;;5072366;28;20226;-16
2022/03/03 14:29:06;;;;;;;7.97;5.60;;;;;;;;;;5071393;28;20234;-16
2022/03/03 14:31:33;;;;;;;7.60;6.20;;;;;;;;;;5072403;28;20233;-17
2022/03/03 14:34:00;;;;;;;7.65;6.13;;;;;;;;;;5072390;28;20751;-16